Elkton, Oregon
Current Conditions -  °F | °C
As of 4:53 AM on Monday 20 Oct 2014 (Local Time) from KRBG Reporting Station
Overcast Overcast  
Wind Chill: 59°   Ceiling: 5500
Heat Index: 59°   Visibility: 10mi
Dew Point: 56°   Wind: 0mph
Humidity: 90%   Direction: NA
Pressure: 29.78"   Gusts: NA
Location:  43.64°N, 123.57°W
Report Text: KRBG 201153Z AUTO 00000KT 10SM OVC055 15/13 A2978 RMK AO2 RAE42 SLP081 P0004 60021 70021 T01500133 10172 20144 50009 $
Loading
Personal Weather Stations






























Interactive Weather Map
Tropical Storm Tracking
New forecast layout! Learn more

10-Day Weather Forecast

Advertisements
Track Severe Weather on mobile